sensor_id;sensor_type;location;lat;lon;timestamp;P1;durP1;ratioP1;P2;durP2;ratioP2
64907;SDS011;51412;52.236;5.188;2022-07-25T00:00:55;9.45;;;6.30;;
64907;SDS011;51412;52.236;5.188;2022-07-25T00:03:22;8.50;;;5.88;;
64907;SDS011;51412;52.236;5.188;2022-07-25T00:05:49;7.38;;;6.30;;
64907;SDS011;51412;52.236;5.188;2022-07-25T00:08:15;8.02;;;6.90;;
64907;SDS011;51412;52.236;5.188;2022-07-25T00:10:42;8.88;;;6.10;;
64907;SDS011;51412;52.236;5.188;2022-07-25T00:13:09;9.27;;;7.05;;
64907;SDS011;51412;52.236;5.188;2022-07-25T00:15:35;8.13;;;5.78;;
64907;SDS011;51412;52.236;5.188;2022-07-25T00:18:03;15.13;;;6.28;;
64907;SDS011;51412;52.236;5.188;2022-07-25T00:20:30;8.70;;;6.30;;
64907;SDS011;51412;52.236;5.188;2022-07-25T00:22:56;8.25;;;6.10;;
64907;SDS011;51412;52.236;5.188;2022-07-25T00:25:23;10.82;;;6.30;;
64907;SDS011;51412;52.236;5.188;2022-07-25T00:27:49;12.93;;;6.72;;
64907;SDS011;51412;52.236;5.188;2022-07-25T00:30:16;10.45;;;6.10;;
64907;SDS011;51412;52.236;5.188;2022-07-25T00:32:43;8.02;;;6.50;;
64907;SDS011;51412;52.236;5.188;2022-07-25T00:35:13;8.18;;;6.50;;
64907;SDS011;51412;52.236;5.188;2022-07-25T00:37:40;8.25;;;6.55;;
64907;SDS011;51412;52.236;5.188;2022-07-25T00:40:07;8.95;;;6.85;;
64907;SDS011;51412;52.236;5.188;2022-07-25T00:42:34;8.60;;;6.43;;
64907;SDS011;51412;52.236;5.188;2022-07-25T00:45:01;9.18;;;7.35;;
64907;SDS011;51412;52.236;5.188;2022-07-25T00:47:27;12.57;;;7.30;;
64907;SDS011;51412;52.236;5.188;2022-07-25T00:49:54;8.65;;;6.40;;
64907;SDS011;51412;52.236;5.188;2022-07-25T00:52:22;8.90;;;7.03;;
64907;SDS011;51412;52.236;5.188;2022-07-25T00:54:48;7.75;;;6.95;;
64907;SDS011;51412;52.236;5.188;2022-07-25T00:57:15;10.07;;;6.53;;
64907;SDS011;51412;52.236;5.188;2022-07-25T00:59:42;10.60;;;6.82;;
64907;SDS011;51412;52.236;5.188;2022-07-25T01:02:08;9.80;;;7.22;;
64907;SDS011;51412;52.236;5.188;2022-07-25T01:04:35;8.95;;;6.75;;
64907;SDS011;51412;52.236;5.188;2022-07-25T01:07:01;9.80;;;6.95;;
64907;SDS011;51412;52.236;5.188;2022-07-25T01:09:29;10.35;;;7.38;;
64907;SDS011;51412;52.236;5.188;2022-07-25T01:11:56;8.20;;;7.13;;
64907;SDS011;51412;52.236;5.188;2022-07-25T01:14:22;9.88;;;7.72;;
64907;SDS011;51412;52.236;5.188;2022-07-25T01:16:49;9.10;;;7.25;;
64907;SDS011;51412;52.236;5.188;2022-07-25T01:19:15;8.57;;;7.65;;
64907;SDS011;51412;52.236;5.188;2022-07-25T01:21:43;9.43;;;8.20;;
64907;SDS011;51412;52.236;5.188;2022-07-25T01:24:11;10.35;;;8.07;;
64907;SDS011;51412;52.236;5.188;2022-07-25T01:26:37;8.82;;;7.00;;
64907;SDS011;51412;52.236;5.188;2022-07-25T01:29:04;9.15;;;6.97;;
64907;SDS011;51412;52.236;5.188;2022-07-25T01:31:31;9.88;;;7.53;;
64907;SDS011;51412;52.236;5.188;2022-07-25T01:33:57;10.27;;;7.35;;
64907;SDS011;51412;52.236;5.188;2022-07-25T01:36:24;10.50;;;8.18;;
64907;SDS011;51412;52.236;5.188;2022-07-25T01:38:51;8.68;;;7.10;;
64907;SDS011;51412;52.236;5.188;2022-07-25T01:41:18;8.88;;;7.00;;
64907;SDS011;51412;52.236;5.188;2022-07-25T01:43:44;10.10;;;7.72;;
64907;SDS011;51412;52.236;5.188;2022-07-25T01:46:11;9.13;;;7.45;;
64907;SDS011;51412;52.236;5.188;2022-07-25T01:48:38;9.32;;;7.25;;
64907;SDS011;51412;52.236;5.188;2022-07-25T01:51:06;10.48;;;7.05;;
64907;SDS011;51412;52.236;5.188;2022-07-25T01:53:34;7.88;;;6.82;;
64907;SDS011;51412;52.236;5.188;2022-07-25T01:56:02;9.35;;;6.93;;
64907;SDS011;51412;52.236;5.188;2022-07-25T01:58:29;8.77;;;7.45;;
64907;SDS011;51412;52.236;5.188;2022-07-25T02:00:56;10.82;;;7.75;;
64907;SDS011;51412;52.236;5.188;2022-07-25T02:03:22;9.48;;;7.18;;
64907;SDS011;51412;52.236;5.188;2022-07-25T02:05:54;10.48;;;8.05;;
64907;SDS011;51412;52.236;5.188;2022-07-25T02:08:21;10.13;;;7.53;;
64907;SDS011;51412;52.236;5.188;2022-07-25T02:10:48;9.18;;;6.90;;
64907;SDS011;51412;52.236;5.188;2022-07-25T02:13:16;7.82;;;7.00;;
64907;SDS011;51412;52.236;5.188;2022-07-25T02:15:42;9.82;;;6.95;;
64907;SDS011;51412;52.236;5.188;2022-07-25T02:18:09;8.85;;;7.95;;
64907;SDS011;51412;52.236;5.188;2022-07-25T02:20:35;9.90;;;7.97;;
64907;SDS011;51412;52.236;5.188;2022-07-25T02:23:02;9.02;;;7.32;;
64907;SDS011;51412;52.236;5.188;2022-07-25T02:25:30;8.95;;;7.47;;
64907;SDS011;51412;52.236;5.188;2022-07-25T02:27:56;12.20;;;7.97;;
64907;SDS011;51412;52.236;5.188;2022-07-25T02:30:24;11.27;;;7.85;;
64907;SDS011;51412;52.236;5.188;2022-07-25T02:32:51;9.07;;;7.28;;
64907;SDS011;51412;52.236;5.188;2022-07-25T02:35:17;8.90;;;7.97;;
64907;SDS011;51412;52.236;5.188;2022-07-25T02:37:44;9.52;;;7.63;;
64907;SDS011;51412;52.236;5.188;2022-07-25T02:40:11;9.57;;;7.60;;
64907;SDS011;51412;52.236;5.188;2022-07-25T02:42:37;13.98;;;8.93;;
64907;SDS011;51412;52.236;5.188;2022-07-25T02:45:04;9.05;;;7.85;;
64907;SDS011;51412;52.236;5.188;2022-07-25T02:47:33;9.23;;;8.27;;
64907;SDS011;51412;52.236;5.188;2022-07-25T02:49:59;10.02;;;7.45;;
64907;SDS011;51412;52.236;5.188;2022-07-25T02:52:26;11.07;;;8.38;;
64907;SDS011;51412;52.236;5.188;2022-07-25T02:54:52;10.07;;;8.18;;
64907;SDS011;51412;52.236;5.188;2022-07-25T02:57:19;9.02;;;7.70;;
64907;SDS011;51412;52.236;5.188;2022-07-25T02:59:45;9.20;;;7.53;;
64907;SDS011;51412;52.236;5.188;2022-07-25T03:02:12;11.07;;;8.50;;
64907;SDS011;51412;52.236;5.188;2022-07-25T03:04:40;10.20;;;8.02;;
64907;SDS011;51412;52.236;5.188;2022-07-25T03:07:06;10.57;;;8.02;;
64907;SDS011;51412;52.236;5.188;2022-07-25T03:09:33;9.32;;;7.85;;
64907;SDS011;51412;52.236;5.188;2022-07-25T03:11:59;10.15;;;7.90;;
64907;SDS011;51412;52.236;5.188;2022-07-25T03:14:26;11.35;;;8.50;;
64907;SDS011;51412;52.236;5.188;2022-07-25T03:16:52;13.48;;;8.32;;
64907;SDS011;51412;52.236;5.188;2022-07-25T03:19:19;9.68;;;8.35;;
64907;SDS011;51412;52.236;5.188;2022-07-25T03:21:46;12.57;;;7.97;;
64907;SDS011;51412;52.236;5.188;2022-07-25T03:24:13;10.68;;;8.43;;
64907;SDS011;51412;52.236;5.188;2022-07-25T03:26:39;9.63;;;8.02;;
64907;SDS011;51412;52.236;5.188;2022-07-25T03:29:06;11.10;;;8.02;;
64907;SDS011;51412;52.236;5.188;2022-07-25T03:31:32;9.55;;;7.72;;
64907;SDS011;51412;52.236;5.188;2022-07-25T03:33:59;9.98;;;8.50;;
64907;SDS011;51412;52.236;5.188;2022-07-25T03:36:26;10.57;;;8.93;;
64907;SDS011;51412;52.236;5.188;2022-07-25T03:38:53;11.70;;;9.18;;
64907;SDS011;51412;52.236;5.188;2022-07-25T03:41:20;11.10;;;8.70;;
64907;SDS011;51412;52.236;5.188;2022-07-25T03:43:47;10.85;;;8.73;;
64907;SDS011;51412;52.236;5.188;2022-07-25T03:46:13;10.27;;;8.23;;
64907;SDS011;51412;52.236;5.188;2022-07-25T03:48:40;12.60;;;9.25;;
64907;SDS011;51412;52.236;5.188;2022-07-25T03:51:06;11.32;;;8.93;;
64907;SDS011;51412;52.236;5.188;2022-07-25T03:53:33;12.23;;;9.60;;
64907;SDS011;51412;52.236;5.188;2022-07-25T03:56:21;14.30;;;9.52;;
64907;SDS011;51412;52.236;5.188;2022-07-25T03:58:48;15.07;;;8.98;;
64907;SDS011;51412;52.236;5.188;2022-07-25T04:01:14;15.73;;;8.73;;
64907;SDS011;51412;52.236;5.188;2022-07-25T04:03:41;21.40;;;9.93;;
64907;SDS011;51412;52.236;5.188;2022-07-25T04:06:07;12.77;;;9.98;;
64907;SDS011;51412;52.236;5.188;2022-07-25T04:08:34;14.60;;;10.32;;
64907;SDS011;51412;52.236;5.188;2022-07-25T04:11:00;15.35;;;9.80;;
64907;SDS011;51412;52.236;5.188;2022-07-25T04:13:28;14.30;;;9.82;;
64907;SDS011;51412;52.236;5.188;2022-07-25T04:15:54;14.55;;;9.77;;
64907;SDS011;51412;52.236;5.188;2022-07-25T04:18:21;12.00;;;10.10;;
64907;SDS011;51412;52.236;5.188;2022-07-25T04:20:47;14.55;;;9.68;;
64907;SDS011;51412;52.236;5.188;2022-07-25T04:23:14;13.30;;;9.38;;
64907;SDS011;51412;52.236;5.188;2022-07-25T04:25:40;16.10;;;11.60;;
64907;SDS011;51412;52.236;5.188;2022-07-25T04:28:07;15.20;;;11.10;;
64907;SDS011;51412;52.236;5.188;2022-07-25T04:30:35;16.15;;;11.23;;
64907;SDS011;51412;52.236;5.188;2022-07-25T04:33:02;13.70;;;10.73;;
64907;SDS011;51412;52.236;5.188;2022-07-25T04:35:29;13.32;;;9.95;;
64907;SDS011;51412;52.236;5.188;2022-07-25T04:37:55;12.05;;;9.77;;
64907;SDS011;51412;52.236;5.188;2022-07-25T04:40:22;12.77;;;10.93;;
64907;SDS011;51412;52.236;5.188;2022-07-25T04:42:48;17.17;;;11.02;;
64907;SDS011;51412;52.236;5.188;2022-07-25T04:45:15;16.45;;;10.98;;
64907;SDS011;51412;52.236;5.188;2022-07-25T04:47:42;16.45;;;10.48;;
64907;SDS011;51412;52.236;5.188;2022-07-25T04:50:09;14.55;;;9.98;;
64907;SDS011;51412;52.236;5.188;2022-07-25T04:52:35;13.25;;;10.25;;
64907;SDS011;51412;52.236;5.188;2022-07-25T04:55:02;14.48;;;10.10;;
64907;SDS011;51412;52.236;5.188;2022-07-25T04:57:29;14.48;;;10.00;;
64907;SDS011;51412;52.236;5.188;2022-07-25T04:59:56;14.95;;;9.93;;
64907;SDS011;51412;52.236;5.188;2022-07-25T05:02:22;14.18;;;10.60;;
64907;SDS011;51412;52.236;5.188;2022-07-25T05:04:50;18.00;;;11.52;;
64907;SDS011;51412;52.236;5.188;2022-07-25T05:07:17;12.38;;;10.05;;
64907;SDS011;51412;52.236;5.188;2022-07-25T05:09:43;16.60;;;11.65;;
64907;SDS011;51412;52.236;5.188;2022-07-25T05:12:10;12.40;;;11.05;;
64907;SDS011;51412;52.236;5.188;2022-07-25T05:14:37;13.07;;;10.82;;
64907;SDS011;51412;52.236;5.188;2022-07-25T05:17:04;14.63;;;11.02;;
64907;SDS011;51412;52.236;5.188;2022-07-25T05:19:30;15.57;;;11.02;;
64907;SDS011;51412;52.236;5.188;2022-07-25T05:21:58;15.57;;;10.93;;
64907;SDS011;51412;52.236;5.188;2022-07-25T05:24:24;16.88;;;12.48;;
64907;SDS011;51412;52.236;5.188;2022-07-25T05:26:51;16.08;;;12.70;;
64907;SDS011;51412;52.236;5.188;2022-07-25T05:29:17;18.83;;;12.52;;
64907;SDS011;51412;52.236;5.188;2022-07-25T05:31:44;18.67;;;12.68;;
64907;SDS011;51412;52.236;5.188;2022-07-25T05:34:11;18.02;;;12.90;;
64907;SDS011;51412;52.236;5.188;2022-07-25T05:36:37;17.92;;;12.30;;
64907;SDS011;51412;52.236;5.188;2022-07-25T05:39:05;17.38;;;12.27;;
64907;SDS011;51412;52.236;5.188;2022-07-25T05:41:31;16.25;;;12.90;;
64907;SDS011;51412;52.236;5.188;2022-07-25T05:43:58;15.52;;;11.68;;
64907;SDS011;51412;52.236;5.188;2022-07-25T05:46:24;19.13;;;13.57;;
64907;SDS011;51412;52.236;5.188;2022-07-25T05:48:51;15.93;;;11.23;;
64907;SDS011;51412;52.236;5.188;2022-07-25T05:51:18;13.90;;;11.70;;
64907;SDS011;51412;52.236;5.188;2022-07-25T05:53:44;15.88;;;11.27;;
64907;SDS011;51412;52.236;5.188;2022-07-25T05:56:12;16.25;;;12.98;;
64907;SDS011;51412;52.236;5.188;2022-07-25T05:58:38;15.25;;;12.43;;
64907;SDS011;51412;52.236;5.188;2022-07-25T06:01:06;16.48;;;12.32;;
64907;SDS011;51412;52.236;5.188;2022-07-25T06:03:33;16.13;;;11.85;;
64907;SDS011;51412;52.236;5.188;2022-07-25T06:05:59;14.63;;;9.90;;
64907;SDS011;51412;52.236;5.188;2022-07-25T06:08:26;11.60;;;8.52;;
64907;SDS011;51412;52.236;5.188;2022-07-25T06:10:54;11.32;;;7.93;;
64907;SDS011;51412;52.236;5.188;2022-07-25T06:13:23;10.23;;;7.75;;
64907;SDS011;51412;52.236;5.188;2022-07-25T06:15:50;9.57;;;6.95;;
64907;SDS011;51412;52.236;5.188;2022-07-25T06:18:16;7.40;;;6.32;;
64907;SDS011;51412;52.236;5.188;2022-07-25T06:20:43;8.60;;;6.47;;
64907;SDS011;51412;52.236;5.188;2022-07-25T06:23:09;8.70;;;6.13;;
64907;SDS011;51412;52.236;5.188;2022-07-25T06:25:36;8.07;;;5.82;;
64907;SDS011;51412;52.236;5.188;2022-07-25T06:28:02;9.05;;;5.90;;
64907;SDS011;51412;52.236;5.188;2022-07-25T06:30:30;7.68;;;5.30;;
64907;SDS011;51412;52.236;5.188;2022-07-25T06:32:57;9.63;;;5.50;;
64907;SDS011;51412;52.236;5.188;2022-07-25T06:35:23;6.95;;;5.47;;
64907;SDS011;51412;52.236;5.188;2022-07-25T06:37:50;7.20;;;5.38;;
64907;SDS011;51412;52.236;5.188;2022-07-25T06:40:17;10.70;;;6.03;;
64907;SDS011;51412;52.236;5.188;2022-07-25T06:42:46;5.82;;;5.03;;
64907;SDS011;51412;52.236;5.188;2022-07-25T06:45:13;6.53;;;4.85;;
64907;SDS011;51412;52.236;5.188;2022-07-25T06:47:41;8.88;;;5.22;;
64907;SDS011;51412;52.236;5.188;2022-07-25T06:50:09;10.77;;;5.60;;
64907;SDS011;51412;52.236;5.188;2022-07-25T06:52:37;8.23;;;4.85;;
64907;SDS011;51412;52.236;5.188;2022-07-25T06:55:05;6.15;;;4.75;;
64907;SDS011;51412;52.236;5.188;2022-07-25T06:57:33;7.40;;;4.90;;
64907;SDS011;51412;52.236;5.188;2022-07-25T06:59:59;8.25;;;5.15;;
64907;SDS011;51412;52.236;5.188;2022-07-25T07:02:26;6.57;;;4.70;;
64907;SDS011;51412;52.236;5.188;2022-07-25T07:04:54;5.90;;;4.50;;
64907;SDS011;51412;52.236;5.188;2022-07-25T07:07:21;11.15;;;4.90;;
64907;SDS011;51412;52.236;5.188;2022-07-25T07:09:47;6.72;;;4.32;;
64907;SDS011;51412;52.236;5.188;2022-07-25T07:12:14;5.93;;;4.43;;
64907;SDS011;51412;52.236;5.188;2022-07-25T07:14:40;5.55;;;4.22;;
64907;SDS011;51412;52.236;5.188;2022-07-25T07:17:09;6.32;;;4.72;;
64907;SDS011;51412;52.236;5.188;2022-07-25T07:19:36;8.30;;;4.05;;
64907;SDS011;51412;52.236;5.188;2022-07-25T07:22:04;6.05;;;4.43;;
64907;SDS011;51412;52.236;5.188;2022-07-25T07:24:30;9.38;;;4.82;;
64907;SDS011;51412;52.236;5.188;2022-07-25T07:26:57;6.93;;;4.30;;
64907;SDS011;51412;52.236;5.188;2022-07-25T07:29:23;4.88;;;3.83;;
64907;SDS011;51412;52.236;5.188;2022-07-25T07:31:50;5.38;;;4.07;;
64907;SDS011;51412;52.236;5.188;2022-07-25T07:34:16;9.13;;;4.30;;
64907;SDS011;51412;52.236;5.188;2022-07-25T07:36:43;5.53;;;3.95;;
64907;SDS011;51412;52.236;5.188;2022-07-25T07:39:10;5.47;;;3.75;;
64907;SDS011;51412;52.236;5.188;2022-07-25T07:41:37;4.63;;;3.70;;
64907;SDS011;51412;52.236;5.188;2022-07-25T07:44:04;6.00;;;3.63;;
64907;SDS011;51412;52.236;5.188;2022-07-25T07:46:30;5.60;;;3.60;;
64907;SDS011;51412;52.236;5.188;2022-07-25T07:48:57;5.63;;;3.50;;
64907;SDS011;51412;52.236;5.188;2022-07-25T07:51:23;8.75;;;3.30;;
64907;SDS011;51412;52.236;5.188;2022-07-25T07:53:50;6.80;;;3.30;;
64907;SDS011;51412;52.236;5.188;2022-07-25T07:56:35;4.72;;;3.10;;
64907;SDS011;51412;52.236;5.188;2022-07-25T07:59:02;3.72;;;2.78;;
64907;SDS011;51412;52.236;5.188;2022-07-25T08:01:29;5.10;;;2.97;;
64907;SDS011;51412;52.236;5.188;2022-07-25T08:03:55;5.68;;;3.08;;
64907;SDS011;51412;52.236;5.188;2022-07-25T08:06:22;5.85;;;3.58;;
64907;SDS011;51412;52.236;5.188;2022-07-25T08:08:48;5.97;;;3.08;;
64907;SDS011;51412;52.236;5.188;2022-07-25T08:11:15;6.63;;;3.63;;
64907;SDS011;51412;52.236;5.188;2022-07-25T08:13:43;7.53;;;3.08;;
64907;SDS011;51412;52.236;5.188;2022-07-25T08:16:09;9.55;;;3.85;;
64907;SDS011;51412;52.236;5.188;2022-07-25T08:18:37;10.63;;;3.08;;
64907;SDS011;51412;52.236;5.188;2022-07-25T08:21:04;6.80;;;3.10;;
64907;SDS011;51412;52.236;5.188;2022-07-25T08:23:31;7.75;;;3.20;;
64907;SDS011;51412;52.236;5.188;2022-07-25T08:25:59;5.80;;;2.95;;
64907;SDS011;51412;52.236;5.188;2022-07-25T08:28:26;5.75;;;3.40;;
64907;SDS011;51412;52.236;5.188;2022-07-25T08:30:54;7.10;;;3.50;;
64907;SDS011;51412;52.236;5.188;2022-07-25T08:33:20;7.80;;;2.90;;
64907;SDS011;51412;52.236;5.188;2022-07-25T08:35:48;7.82;;;3.20;;
64907;SDS011;51412;52.236;5.188;2022-07-25T08:38:17;6.95;;;3.20;;
64907;SDS011;51412;52.236;5.188;2022-07-25T08:40:44;6.80;;;3.30;;
64907;SDS011;51412;52.236;5.188;2022-07-25T08:43:11;6.03;;;3.00;;
64907;SDS011;51412;52.236;5.188;2022-07-25T08:45:40;8.98;;;3.30;;
64907;SDS011;51412;52.236;5.188;2022-07-25T08:48:11;8.05;;;3.67;;
64907;SDS011;51412;52.236;5.188;2022-07-25T08:50:38;9.48;;;3.50;;
64907;SDS011;51412;52.236;5.188;2022-07-25T08:53:05;6.82;;;3.45;;
64907;SDS011;51412;52.236;5.188;2022-07-25T08:55:31;7.03;;;3.88;;
64907;SDS011;51412;52.236;5.188;2022-07-25T08:57:58;7.88;;;3.60;;
64907;SDS011;51412;52.236;5.188;2022-07-25T09:00:27;8.43;;;3.33;;
64907;SDS011;51412;52.236;5.188;2022-07-25T09:02:54;12.95;;;3.55;;
64907;SDS011;51412;52.236;5.188;2022-07-25T09:05:24;9.13;;;3.40;;
64907;SDS011;51412;52.236;5.188;2022-07-25T09:07:51;11.73;;;4.20;;
64907;SDS011;51412;52.236;5.188;2022-07-25T09:10:21;6.70;;;3.50;;
64907;SDS011;51412;52.236;5.188;2022-07-25T09:12:50;7.60;;;4.50;;
64907;SDS011;51412;52.236;5.188;2022-07-25T09:15:25;9.52;;;3.65;;
64907;SDS011;51412;52.236;5.188;2022-07-25T09:17:52;9.18;;;3.42;;
64907;SDS011;51412;52.236;5.188;2022-07-25T09:20:19;8.05;;;3.63;;
64907;SDS011;51412;52.236;5.188;2022-07-25T09:22:48;11.55;;;3.85;;
64907;SDS011;51412;52.236;5.188;2022-07-25T09:25:21;9.15;;;3.92;;
64907;SDS011;51412;52.236;5.188;2022-07-25T09:27:49;9.20;;;3.55;;
64907;SDS011;51412;52.236;5.188;2022-07-25T09:30:16;8.48;;;4.07;;
64907;SDS011;51412;52.236;5.188;2022-07-25T09:32:43;7.28;;;3.90;;
64907;SDS011;51412;52.236;5.188;2022-07-25T09:35:10;7.70;;;3.90;;
64907;SDS011;51412;52.236;5.188;2022-07-25T09:37:37;11.30;;;4.22;;
64907;SDS011;51412;52.236;5.188;2022-07-25T09:40:12;10.15;;;3.70;;
64907;SDS011;51412;52.236;5.188;2022-07-25T09:42:40;8.70;;;4.25;;
64907;SDS011;51412;52.236;5.188;2022-07-25T09:45:10;5.15;;;3.60;;
64907;SDS011;51412;52.236;5.188;2022-07-25T09:47:48;7.07;;;4.13;;
64907;SDS011;51412;52.236;5.188;2022-07-25T09:50:17;8.05;;;4.10;;
64907;SDS011;51412;52.236;5.188;2022-07-25T09:52:44;8.32;;;3.90;;
64907;SDS011;51412;52.236;5.188;2022-07-25T09:55:12;7.75;;;4.20;;
64907;SDS011;51412;52.236;5.188;2022-07-25T09:57:40;10.27;;;4.97;;
64907;SDS011;51412;52.236;5.188;2022-07-25T10:00:09;6.97;;;3.90;;
64907;SDS011;51412;52.236;5.188;2022-07-25T10:02:45;5.95;;;4.00;;
64907;SDS011;51412;52.236;5.188;2022-07-25T10:05:14;6.95;;;3.70;;
64907;SDS011;51412;52.236;5.188;2022-07-25T10:07:44;8.35;;;4.38;;
64907;SDS011;51412;52.236;5.188;2022-07-25T10:10:27;9.02;;;4.00;;
64907;SDS011;51412;52.236;5.188;2022-07-25T10:12:57;8.35;;;3.80;;
64907;SDS011;51412;52.236;5.188;2022-07-25T10:15:25;8.77;;;3.88;;
64907;SDS011;51412;52.236;5.188;2022-07-25T10:18:00;7.57;;;3.47;;
64907;SDS011;51412;52.236;5.188;2022-07-25T10:20:27;8.40;;;4.10;;
64907;SDS011;51412;52.236;5.188;2022-07-25T10:22:54;8.02;;;4.15;;
64907;SDS011;51412;52.236;5.188;2022-07-25T10:25:20;8.63;;;3.50;;
64907;SDS011;51412;52.236;5.188;2022-07-25T10:27:49;11.15;;;3.80;;
64907;SDS011;51412;52.236;5.188;2022-07-25T10:30:22;7.78;;;3.83;;
64907;SDS011;51412;52.236;5.188;2022-07-25T10:32:54;6.50;;;4.13;;
64907;SDS011;51412;52.236;5.188;2022-07-25T10:35:21;13.13;;;4.15;;
64907;SDS011;51412;52.236;5.188;2022-07-25T10:37:49;9.70;;;4.90;;
64907;SDS011;51412;52.236;5.188;2022-07-25T10:40:31;11.95;;;4.63;;
64907;SDS011;51412;52.236;5.188;2022-07-25T10:43:01;10.10;;;4.88;;
64907;SDS011;51412;52.236;5.188;2022-07-25T10:45:35;5.97;;;3.80;;
64907;SDS011;51412;52.236;5.188;2022-07-25T10:48:11;8.13;;;3.65;;
64907;SDS011;51412;52.236;5.188;2022-07-25T10:50:47;10.80;;;3.60;;
64907;SDS011;51412;52.236;5.188;2022-07-25T10:53:15;5.53;;;3.35;;
64907;SDS011;51412;52.236;5.188;2022-07-25T10:55:55;5.82;;;3.40;;
64907;SDS011;51412;52.236;5.188;2022-07-25T10:58:23;6.55;;;4.22;;
64907;SDS011;51412;52.236;5.188;2022-07-25T11:00:50;8.23;;;3.88;;
64907;SDS011;51412;52.236;5.188;2022-07-25T11:03:17;7.88;;;3.90;;
64907;SDS011;51412;52.236;5.188;2022-07-25T11:05:44;9.95;;;4.07;;
64907;SDS011;51412;52.236;5.188;2022-07-25T11:08:13;10.02;;;4.28;;
64907;SDS011;51412;52.236;5.188;2022-07-25T11:10:40;7.32;;;4.00;;
64907;SDS011;51412;52.236;5.188;2022-07-25T11:13:15;13.23;;;4.40;;
64907;SDS011;51412;52.236;5.188;2022-07-25T11:15:43;10.07;;;4.03;;
64907;SDS011;51412;52.236;5.188;2022-07-25T11:18:10;7.70;;;4.32;;
64907;SDS011;51412;52.236;5.188;2022-07-25T11:20:36;13.00;;;4.57;;
64907;SDS011;51412;52.236;5.188;2022-07-25T11:23:03;7.85;;;4.18;;
64907;SDS011;51412;52.236;5.188;2022-07-25T11:25:30;9.88;;;4.20;;
64907;SDS011;51412;52.236;5.188;2022-07-25T11:27:57;12.55;;;4.15;;
64907;SDS011;51412;52.236;5.188;2022-07-25T11:30:25;11.52;;;4.40;;
64907;SDS011;51412;52.236;5.188;2022-07-25T11:32:55;9.57;;;4.95;;
64907;SDS011;51412;52.236;5.188;2022-07-25T11:35:23;11.45;;;4.57;;
64907;SDS011;51412;52.236;5.188;2022-07-25T11:37:51;10.10;;;4.78;;
64907;SDS011;51412;52.236;5.188;2022-07-25T11:40:19;14.73;;;4.82;;
64907;SDS011;51412;52.236;5.188;2022-07-25T11:42:47;9.93;;;4.22;;
64907;SDS011;51412;52.236;5.188;2022-07-25T11:45:16;25.20;;;5.65;;
64907;SDS011;51412;52.236;5.188;2022-07-25T11:47:43;15.30;;;4.68;;
64907;SDS011;51412;52.236;5.188;2022-07-25T11:50:11;12.82;;;5.38;;
64907;SDS011;51412;52.236;5.188;2022-07-25T11:52:40;8.45;;;5.07;;
64907;SDS011;51412;52.236;5.188;2022-07-25T11:55:08;12.10;;;5.05;;
64907;SDS011;51412;52.236;5.188;2022-07-25T11:57:36;16.17;;;4.95;;
64907;SDS011;51412;52.236;5.188;2022-07-25T12:00:07;16.00;;;4.75;;
64907;SDS011;51412;52.236;5.188;2022-07-25T12:02:35;10.00;;;4.93;;
64907;SDS011;51412;52.236;5.188;2022-07-25T12:05:03;11.02;;;4.78;;
64907;SDS011;51412;52.236;5.188;2022-07-25T12:07:40;11.93;;;4.30;;
64907;SDS011;51412;52.236;5.188;2022-07-25T12:10:09;12.63;;;4.72;;
64907;SDS011;51412;52.236;5.188;2022-07-25T12:12:41;8.30;;;4.15;;
64907;SDS011;51412;52.236;5.188;2022-07-25T12:15:14;13.35;;;4.75;;
64907;SDS011;51412;52.236;5.188;2022-07-25T12:17:42;13.20;;;4.28;;
64907;SDS011;51412;52.236;5.188;2022-07-25T12:20:12;11.27;;;4.22;;
64907;SDS011;51412;52.236;5.188;2022-07-25T12:22:42;11.23;;;4.83;;
64907;SDS011;51412;52.236;5.188;2022-07-25T12:25:09;10.73;;;4.80;;
64907;SDS011;51412;52.236;5.188;2022-07-25T12:27:37;9.95;;;4.95;;
64907;SDS011;51412;52.236;5.188;2022-07-25T12:30:04;9.32;;;4.28;;
64907;SDS011;51412;52.236;5.188;2022-07-25T12:32:31;6.38;;;3.70;;
64907;SDS011;51412;52.236;5.188;2022-07-25T12:34:58;10.57;;;4.47;;
64907;SDS011;51412;52.236;5.188;2022-07-25T12:37:25;12.10;;;4.55;;
64907;SDS011;51412;52.236;5.188;2022-07-25T12:39:53;9.02;;;4.13;;
64907;SDS011;51412;52.236;5.188;2022-07-25T12:42:21;8.15;;;4.90;;
64907;SDS011;51412;52.236;5.188;2022-07-25T12:44:47;10.35;;;3.92;;
64907;SDS011;51412;52.236;5.188;2022-07-25T12:47:14;9.77;;;4.28;;
64907;SDS011;51412;52.236;5.188;2022-07-25T12:49:40;10.35;;;4.93;;
64907;SDS011;51412;52.236;5.188;2022-07-25T12:52:07;10.95;;;4.07;;
64907;SDS011;51412;52.236;5.188;2022-07-25T12:54:33;10.10;;;4.30;;
64907;SDS011;51412;52.236;5.188;2022-07-25T12:57:01;10.32;;;3.83;;
64907;SDS011;51412;52.236;5.188;2022-07-25T12:59:28;7.05;;;3.45;;
64907;SDS011;51412;52.236;5.188;2022-07-25T13:01:54;10.90;;;3.65;;
64907;SDS011;51412;52.236;5.188;2022-07-25T13:04:21;12.25;;;3.63;;
64907;SDS011;51412;52.236;5.188;2022-07-25T13:06:50;7.75;;;3.55;;
64907;SDS011;51412;52.236;5.188;2022-07-25T13:09:16;9.00;;;3.60;;
64907;SDS011;51412;52.236;5.188;2022-07-25T13:11:43;6.63;;;3.60;;
64907;SDS011;51412;52.236;5.188;2022-07-25T13:14:11;10.88;;;3.75;;
64907;SDS011;51412;52.236;5.188;2022-07-25T13:16:37;9.70;;;3.92;;
64907;SDS011;51412;52.236;5.188;2022-07-25T13:19:04;7.13;;;3.45;;
64907;SDS011;51412;52.236;5.188;2022-07-25T13:21:31;7.95;;;4.03;;
64907;SDS011;51412;52.236;5.188;2022-07-25T13:23:57;10.52;;;3.92;;
64907;SDS011;51412;52.236;5.188;2022-07-25T13:26:24;8.45;;;4.22;;
64907;SDS011;51412;52.236;5.188;2022-07-25T13:28:50;9.63;;;3.95;;
64907;SDS011;51412;52.236;5.188;2022-07-25T13:31:18;14.45;;;4.13;;
64907;SDS011;51412;52.236;5.188;2022-07-25T13:33:45;9.25;;;4.55;;
64907;SDS011;51412;52.236;5.188;2022-07-25T13:36:13;8.80;;;3.95;;
64907;SDS011;51412;52.236;5.188;2022-07-25T13:38:40;7.07;;;3.30;;
64907;SDS011;51412;52.236;5.188;2022-07-25T13:41:07;8.35;;;3.30;;
64907;SDS011;51412;52.236;5.188;2022-07-25T13:43:34;9.18;;;3.90;;
64907;SDS011;51412;52.236;5.188;2022-07-25T13:46:00;19.92;;;4.35;;
64907;SDS011;51412;52.236;5.188;2022-07-25T13:48:29;8.85;;;3.20;;
64907;SDS011;51412;52.236;5.188;2022-07-25T13:50:56;10.35;;;3.20;;
64907;SDS011;51412;52.236;5.188;2022-07-25T13:53:23;9.45;;;3.25;;
64907;SDS011;51412;52.236;5.188;2022-07-25T13:55:49;11.95;;;3.72;;
64907;SDS011;51412;52.236;5.188;2022-07-25T13:58:16;7.65;;;3.28;;
64907;SDS011;51412;52.236;5.188;2022-07-25T14:00:43;5.40;;;3.25;;
64907;SDS011;51412;52.236;5.188;2022-07-25T14:03:09;9.23;;;3.53;;
64907;SDS011;51412;52.236;5.188;2022-07-25T14:05:38;12.63;;;3.40;;
64907;SDS011;51412;52.236;5.188;2022-07-25T14:08:05;8.75;;;3.17;;
64907;SDS011;51412;52.236;5.188;2022-07-25T14:10:33;7.80;;;3.10;;
64907;SDS011;51412;52.236;5.188;2022-07-25T14:12:59;7.60;;;3.38;;
64907;SDS011;51412;52.236;5.188;2022-07-25T14:15:26;12.13;;;3.67;;
64907;SDS011;51412;52.236;5.188;2022-07-25T14:17:53;13.18;;;3.97;;
64907;SDS011;51412;52.236;5.188;2022-07-25T14:20:19;9.38;;;3.60;;
64907;SDS011;51412;52.236;5.188;2022-07-25T14:22:47;10.77;;;3.72;;
64907;SDS011;51412;52.236;5.188;2022-07-25T14:25:14;7.25;;;3.47;;
64907;SDS011;51412;52.236;5.188;2022-07-25T14:27:40;10.65;;;3.67;;
64907;SDS011;51412;52.236;5.188;2022-07-25T14:30:07;9.95;;;3.47;;
64907;SDS011;51412;52.236;5.188;2022-07-25T14:32:35;6.15;;;2.88;;
64907;SDS011;51412;52.236;5.188;2022-07-25T14:35:01;9.15;;;3.20;;
64907;SDS011;51412;52.236;5.188;2022-07-25T14:37:30;8.60;;;3.58;;
64907;SDS011;51412;52.236;5.188;2022-07-25T14:39:58;7.70;;;3.78;;
64907;SDS011;51412;52.236;5.188;2022-07-25T14:42:25;11.20;;;3.63;;